createdAt,value
2023-03-06T00:00:18.148Z,90.91
2023-03-06T00:02:45.668Z,91.04
2023-03-06T00:05:16.032Z,90.26
2023-03-06T00:07:43.945Z,91.13
2023-03-06T00:10:15.866Z,90.73
2023-03-06T00:12:43.422Z,89.85
2023-03-06T00:15:11.112Z,90.25
2023-03-06T00:17:38.974Z,90.59
2023-03-06T00:20:06.916Z,90.44
2023-03-06T00:22:34.520Z,90.10
2023-03-06T00:25:02.054Z,89.03
2023-03-06T00:27:30.496Z,87.40
2023-03-06T00:29:58.414Z,87.02
2023-03-06T00:32:26.402Z,87.34
2023-03-06T00:34:54.002Z,87.77
2023-03-06T00:37:22.138Z,86.83
2023-03-06T00:39:49.813Z,86.36
2023-03-06T00:42:17.534Z,87.51
2023-03-06T00:44:44.887Z,86.64
2023-03-06T00:47:12.569Z,86.61
2023-03-06T00:49:39.797Z,86.53
2023-03-06T00:52:07.258Z,86.45
2023-03-06T00:54:34.767Z,86.07
2023-03-06T00:57:02.024Z,86.44
2023-03-06T00:59:29.229Z,86.63
2023-03-06T01:01:57.374Z,86.04
2023-03-06T01:04:24.634Z,85.75
2023-03-06T01:06:51.896Z,85.58
2023-03-06T01:09:19.474Z,85.33
2023-03-06T01:11:46.726Z,85.07
2023-03-06T01:14:13.975Z,84.11
2023-03-06T01:16:41.567Z,83.51
2023-03-06T01:19:10.024Z,83.32
2023-03-06T01:21:37.691Z,83.96
2023-03-06T01:24:05.294Z,83.55
2023-03-06T01:26:33.494Z,84.03
2023-03-06T01:29:00.984Z,82.82
2023-03-06T01:31:28.662Z,83.36
2023-03-06T01:33:55.989Z,84.36
2023-03-06T01:36:23.729Z,84.24
2023-03-06T01:38:51.289Z,84.28
2023-03-06T01:41:18.582Z,85.01
2023-03-06T01:43:47.434Z,84.76
2023-03-06T01:46:17.986Z,84.72
2023-03-06T01:48:45.283Z,84.44
2023-03-06T01:51:12.514Z,84.53
2023-03-06T01:53:40.086Z,84.10
2023-03-06T01:56:07.362Z,84.71
2023-03-06T01:58:34.680Z,84.83
2023-03-06T02:01:02.281Z,85.29
2023-03-06T02:03:30.747Z,84.98
2023-03-06T02:05:59.202Z,84.58
2023-03-06T02:08:26.439Z,84.96
2023-03-06T02:11:06.049Z,85.66
2023-03-06T02:13:33.318Z,86.31
2023-03-06T02:16:01.149Z,86.47
2023-03-06T02:18:28.865Z,87.26
2023-03-06T02:20:57.678Z,86.33
2023-03-06T02:23:25.521Z,86.85
2023-03-06T02:25:52.754Z,87.83
2023-03-06T02:28:21.015Z,88.19
2023-03-06T02:30:50.496Z,88.55
2023-03-06T02:33:18.681Z,87.95
2023-03-06T02:35:56.376Z,87.68
2023-03-06T02:38:25.493Z,87.53
2023-03-06T02:40:52.763Z,87.80
2023-03-06T02:43:24.741Z,87.79
2023-03-06T02:45:52.581Z,87.85
2023-03-06T02:48:20.414Z,88.06
2023-03-06T02:50:48.494Z,86.55
2023-03-06T02:53:17.561Z,86.31
2023-03-06T02:55:44.966Z,87.19
2023-03-06T02:58:12.217Z,86.76
2023-03-06T03:00:40.227Z,87.01
2023-03-06T03:03:08.255Z,86.42
2023-03-06T03:05:35.475Z,86.85
2023-03-06T03:08:04.249Z,86.86
2023-03-06T03:10:31.523Z,87.04
2023-03-06T03:12:59.023Z,87.04
2023-03-06T03:15:27.006Z,87.06
2023-03-06T03:17:54.281Z,86.70
2023-03-06T03:20:21.826Z,86.26
2023-03-06T03:22:51.608Z,86.71
2023-03-06T03:25:19.007Z,86.95
2023-03-06T03:27:46.324Z,86.85
2023-03-06T03:30:14.327Z,86.08
2023-03-06T03:32:42.938Z,86.10
2023-03-06T03:35:10.451Z,86.46
2023-03-06T03:37:38.115Z,86.84
2023-03-06T03:40:07.138Z,87.38
2023-03-06T03:42:34.543Z,87.30
2023-03-06T03:45:02.789Z,86.86
2023-03-06T03:47:30.243Z,87.37
2023-03-06T03:49:57.574Z,87.29
2023-03-06T03:52:25.342Z,87.24
2023-03-06T03:54:52.616Z,87.44
2023-03-06T03:57:20.016Z,87.09
2023-03-06T03:59:48.099Z,86.97
2023-03-06T04:02:16.091Z,87.14
2023-03-06T04:04:44.296Z,87.27
2023-03-06T04:07:12.809Z,87.20
2023-03-06T04:09:40.071Z,87.58
2023-03-06T04:12:08.274Z,87.65
2023-03-06T04:14:35.763Z,87.33
2023-03-06T04:17:03.451Z,87.38
2023-03-06T04:19:31.122Z,87.69
2023-03-06T04:21:58.646Z,88.62
2023-03-06T04:24:26.441Z,88.47
2023-03-06T04:26:54.065Z,88.37
2023-03-06T04:29:21.367Z,88.12
2023-03-06T04:31:48.718Z,87.85
2023-03-06T04:34:17.688Z,88.45
2023-03-06T04:36:46.153Z,89.48
2023-03-06T04:39:14.153Z,89.09
2023-03-06T04:41:42.143Z,89.01
2023-03-06T04:44:09.750Z,88.62
2023-03-06T04:46:37.040Z,88.57
2023-03-06T04:49:04.615Z,88.41
2023-03-06T04:51:31.857Z,88.41
2023-03-06T04:54:00.592Z,87.94
2023-03-06T04:56:28.111Z,88.19
2023-03-06T04:58:55.446Z,88.17
2023-03-06T05:01:22.828Z,88.42
2023-03-06T05:03:50.372Z,88.07
2023-03-06T05:06:17.742Z,88.55
2023-03-06T05:08:44.948Z,88.57
2023-03-06T05:11:13.132Z,88.97
2023-03-06T05:13:40.342Z,88.65
2023-03-06T05:16:08.014Z,88.86
2023-03-06T05:18:35.807Z,88.23
2023-03-06T05:21:03.765Z,88.42
2023-03-06T05:23:31.454Z,88.42
2023-03-06T05:25:59.166Z,88.26
2023-03-06T05:28:26.588Z,89.23
2023-03-06T05:30:53.810Z,89.45
2023-03-06T05:33:21.357Z,88.87
2023-03-06T05:35:48.877Z,88.86
2023-03-06T05:38:16.460Z,88.86
2023-03-06T05:40:44.783Z,89.39
2023-03-06T05:43:12.178Z,89.22
2023-03-06T05:45:39.991Z,90.08
2023-03-06T05:48:07.571Z,89.95
2023-03-06T05:50:34.821Z,90.07
2023-03-06T05:53:02.180Z,89.75
2023-03-06T05:55:30.217Z,89.71
2023-03-06T05:57:57.627Z,89.66
2023-03-06T06:00:25.212Z,89.18
2023-03-06T06:02:52.827Z,89.76
2023-03-06T06:05:20.094Z,90.24
2023-03-06T06:07:47.436Z,89.95
2023-03-06T06:10:15.278Z,87.88
2023-03-06T06:12:42.509Z,87.68
2023-03-06T06:15:10.102Z,88.51
2023-03-06T06:17:37.891Z,88.84
2023-03-06T06:20:05.335Z,88.98
2023-03-06T06:22:35.198Z,88.76
2023-03-06T06:25:03.048Z,88.64
2023-03-06T06:27:30.321Z,88.90
2023-03-06T06:29:57.874Z,88.89
2023-03-06T06:32:25.486Z,87.57
2023-03-06T06:34:52.791Z,87.07
2023-03-06T06:37:20.097Z,86.63
2023-03-06T06:39:47.636Z,86.44
2023-03-06T06:42:30.517Z,86.60
2023-03-06T06:45:00.555Z,85.81
2023-03-06T06:47:27.813Z,86.65
2023-03-06T06:49:55.504Z,86.31
2023-03-06T06:52:23.676Z,86.35
2023-03-06T06:54:51.377Z,86.26
2023-03-06T06:57:18.590Z,85.64
2023-03-06T06:59:46.114Z,85.77
2023-03-06T07:02:14.641Z,85.95
2023-03-06T07:04:56.171Z,86.66
2023-03-06T07:07:31.749Z,86.66
2023-03-06T07:09:59.982Z,85.77
2023-03-06T07:12:27.967Z,85.57
2023-03-06T07:14:56.002Z,85.23
2023-03-06T07:17:23.254Z,85.76
2023-03-06T07:19:50.540Z,86.43
2023-03-06T07:22:18.007Z,86.96
2023-03-06T07:24:45.196Z,88.01
2023-03-06T07:27:12.402Z,89.44
2023-03-06T07:29:42.044Z,89.88
2023-03-06T07:32:09.209Z,89.91
2023-03-06T07:34:36.371Z,90.14
2023-03-06T07:37:03.870Z,92.33
2023-03-06T07:39:32.007Z,92.83
2023-03-06T07:41:59.137Z,93.57
2023-03-06T07:44:26.785Z,92.32
2023-03-06T07:46:54.122Z,94.23
2023-03-06T07:49:21.974Z,92.37
2023-03-06T07:51:49.496Z,91.06
2023-03-06T07:54:17.018Z,90.32
2023-03-06T07:56:44.217Z,89.14
2023-03-06T07:59:11.889Z,88.98
2023-03-06T08:01:40.298Z,87.68
2023-03-06T08:04:07.899Z,87.08
2023-03-06T08:06:35.185Z,88.94
2023-03-06T08:09:02.691Z,89.22
2023-03-06T08:11:30.670Z,88.63
2023-03-06T08:13:58.126Z,89.44
2023-03-06T08:16:26.245Z,88.77
2023-03-06T08:18:54.046Z,87.79
2023-03-06T08:21:22.447Z,87.84
2023-03-06T08:23:49.679Z,86.96
2023-03-06T08:26:18.000Z,86.34
2023-03-06T08:28:45.274Z,86.62
2023-03-06T08:31:13.673Z,84.20
2023-03-06T08:33:43.774Z,81.91
2023-03-06T08:36:11.044Z,82.42
2023-03-06T08:38:38.924Z,78.09
2023-03-06T08:41:06.606Z,80.70
2023-03-06T08:43:35.795Z,80.99
2023-03-06T08:46:03.268Z,82.09
2023-03-06T08:48:31.013Z,79.71
2023-03-06T08:50:58.274Z,79.83
2023-03-06T08:53:40.289Z,79.24
2023-03-06T08:56:08.536Z,77.91
2023-03-06T08:58:35.768Z,78.06
2023-03-06T09:01:07.207Z,79.15
2023-03-06T09:03:34.895Z,80.89
2023-03-06T09:06:02.219Z,78.00
2023-03-06T09:08:29.489Z,79.59
2023-03-06T09:10:57.993Z,80.17
2023-03-06T09:13:25.940Z,79.95
2023-03-06T09:15:54.143Z,79.65
2023-03-06T09:18:21.733Z,82.56
2023-03-06T09:20:48.982Z,81.12
2023-03-06T09:23:16.254Z,76.54
2023-03-06T09:25:43.840Z,74.90
2023-03-06T09:28:12.443Z,74.74
2023-03-06T09:30:40.262Z,76.47
2023-03-06T09:33:08.194Z,74.86
2023-03-06T09:35:35.655Z,71.27
2023-03-06T09:38:02.995Z,72.38
2023-03-06T09:40:33.910Z,72.14
2023-03-06T09:43:01.218Z,71.67
2023-03-06T09:45:28.488Z,72.97
2023-03-06T09:48:00.754Z,70.29
2023-03-06T09:50:50.530Z,71.42
2023-03-06T09:53:36.567Z,69.72
2023-03-06T09:56:06.390Z,71.80
2023-03-06T09:58:34.888Z,69.27
2023-03-06T10:01:22.475Z,69.79
2023-03-06T10:04:12.990Z,70.25
2023-03-06T10:06:47.932Z,70.95
2023-03-06T10:09:18.527Z,70.78
2023-03-06T10:11:47.619Z,70.68
2023-03-06T10:14:20.407Z,68.96
2023-03-06T10:16:48.094Z,70.82
2023-03-06T10:19:16.930Z,71.13
2023-03-06T10:21:47.167Z,72.64
2023-03-06T10:24:34.233Z,74.15
2023-03-06T10:27:06.581Z,73.76
2023-03-06T10:29:39.125Z,73.91
2023-03-06T10:32:11.280Z,73.97
2023-03-06T10:34:39.669Z,73.75
2023-03-06T10:37:32.941Z,72.34
2023-03-06T10:40:08.807Z,72.67
2023-03-06T10:42:36.961Z,72.65
2023-03-06T10:45:14.243Z,73.16
2023-03-06T10:47:41.891Z,73.18
2023-03-06T10:50:28.931Z,71.54
2023-03-06T10:53:05.058Z,71.31
2023-03-06T10:55:36.112Z,71.38
2023-03-06T10:58:18.858Z,71.37
2023-03-06T11:00:46.458Z,71.13
2023-03-06T11:03:13.776Z,69.50
2023-03-06T11:05:41.050Z,70.16
2023-03-06T11:08:11.220Z,71.44
2023-03-06T11:10:38.543Z,70.54
2023-03-06T11:13:08.982Z,71.47
2023-03-06T11:15:36.556Z,70.67
2023-03-06T11:18:05.119Z,72.00
2023-03-06T11:20:51.404Z,71.31
2023-03-06T11:23:28.841Z,70.27
2023-03-06T11:26:02.953Z,70.35
2023-03-06T11:28:31.775Z,71.00
2023-03-06T11:30:59.296Z,68.95
2023-03-06T11:33:40.778Z,69.60
2023-03-06T11:36:09.700Z,72.06
2023-03-06T11:38:50.449Z,69.25
2023-03-06T11:41:29.281Z,68.94
2023-03-06T11:44:08.558Z,68.18
2023-03-06T11:46:44.340Z,68.63
2023-03-06T11:49:26.930Z,69.56
2023-03-06T11:51:55.883Z,67.62
2023-03-06T11:54:23.200Z,70.19
2023-03-06T11:56:57.918Z,67.14
2023-03-06T11:59:34.753Z,65.51
2023-03-06T12:02:14.385Z,67.42
2023-03-06T12:04:56.134Z,66.87
2023-03-06T12:07:26.663Z,64.85
2023-03-06T12:09:56.347Z,65.73
2023-03-06T12:12:29.650Z,64.43
2023-03-06T12:15:07.055Z,67.19
2023-03-06T12:17:39.798Z,63.30
2023-03-06T12:20:23.518Z,64.03
2023-03-06T12:22:57.580Z,62.52
2023-03-06T12:25:32.969Z,61.13
2023-03-06T12:28:19.211Z,63.84
2023-03-06T12:30:55.658Z,62.25
2023-03-06T12:33:25.319Z,64.95
2023-03-06T12:36:17.918Z,64.15
2023-03-06T12:38:47.499Z,62.69
2023-03-06T12:41:23.167Z,61.98
2023-03-06T12:43:50.425Z,61.55
2023-03-06T12:46:22.014Z,63.16
2023-03-06T12:49:02.151Z,61.40
2023-03-06T12:51:29.746Z,60.31
2023-03-06T12:53:57.578Z,60.11
2023-03-06T12:56:24.899Z,59.82
2023-03-06T12:58:53.826Z,61.04
2023-03-06T13:01:39.860Z,61.88
2023-03-06T13:04:25.792Z,63.55
2023-03-06T13:07:18.307Z,62.23
2023-03-06T13:10:04.926Z,63.57
2023-03-06T13:12:35.229Z,63.43
2023-03-06T13:15:22.995Z,64.73
2023-03-06T13:17:50.236Z,63.53
2023-03-06T13:20:18.497Z,62.77
2023-03-06T13:22:46.898Z,63.08
2023-03-06T13:25:17.240Z,62.32
2023-03-06T13:27:53.537Z,61.12
2023-03-06T13:30:21.027Z,62.20
2023-03-06T13:32:49.347Z,62.21
2023-03-06T13:35:36.594Z,61.61
2023-03-06T13:38:04.203Z,62.92
2023-03-06T13:40:35.021Z,61.96
2023-03-06T13:43:13.697Z,62.15
2023-03-06T13:45:43.274Z,62.00
2023-03-06T13:48:43.648Z,61.96
2023-03-06T13:51:24.712Z,63.37
2023-03-06T13:53:55.828Z,62.82
2023-03-06T13:56:46.737Z,62.60
2023-03-06T13:59:20.142Z,62.45
2023-03-06T14:02:03.016Z,63.67
2023-03-06T14:04:35.614Z,63.68
2023-03-06T14:07:06.263Z,64.11
2023-03-06T14:09:38.102Z,63.80
2023-03-06T14:12:07.309Z,64.83
2023-03-06T14:14:44.932Z,63.99
2023-03-06T14:17:15.407Z,64.23
2023-03-06T14:19:42.980Z,64.98
2023-03-06T14:22:14.781Z,64.50
2023-03-06T14:24:43.750Z,65.67
2023-03-06T14:27:18.794Z,65.53
2023-03-06T14:29:48.608Z,65.77
2023-03-06T14:32:16.714Z,65.71
2023-03-06T14:34:45.883Z,66.23
2023-03-06T14:37:20.049Z,65.36
2023-03-06T14:39:47.839Z,66.05
2023-03-06T14:42:19.051Z,65.31
2023-03-06T14:44:49.916Z,67.68
2023-03-06T14:47:21.544Z,68.44
2023-03-06T14:50:08.849Z,67.17
2023-03-06T14:52:36.406Z,67.47
2023-03-06T14:55:03.754Z,68.60
2023-03-06T14:57:31.032Z,68.98
2023-03-06T14:59:58.587Z,68.46
2023-03-06T15:02:26.579Z,67.47
2023-03-06T15:04:54.970Z,68.09
2023-03-06T15:07:23.313Z,67.81
2023-03-06T15:09:51.766Z,66.91
2023-03-06T15:12:19.824Z,67.27
2023-03-06T15:14:57.843Z,69.38
2023-03-06T15:17:28.144Z,68.49
2023-03-06T15:19:56.480Z,70.37
2023-03-06T15:22:28.867Z,71.67
2023-03-06T15:25:11.768Z,74.42
2023-03-06T15:27:39.033Z,74.12
2023-03-06T15:30:33.393Z,76.20
2023-03-06T15:33:10.023Z,78.05
2023-03-06T15:35:38.346Z,78.12
2023-03-06T15:38:21.408Z,78.97
2023-03-06T15:40:56.091Z,80.30
2023-03-06T15:43:23.316Z,80.89
2023-03-06T15:45:51.281Z,82.01
2023-03-06T15:48:18.635Z,83.84
2023-03-06T15:50:45.992Z,85.42
2023-03-06T15:53:15.566Z,86.80
2023-03-06T15:55:42.825Z,87.19
2023-03-06T15:58:10.112Z,87.54
2023-03-06T16:00:40.916Z,88.69
2023-03-06T16:03:11.739Z,89.80
2023-03-06T16:05:39.057Z,90.33
2023-03-06T16:08:06.460Z,90.80
2023-03-06T16:10:35.319Z,90.47
2023-03-06T16:13:06.740Z,91.43
2023-03-06T16:15:37.881Z,92.72
2023-03-06T16:18:06.217Z,93.47
2023-03-06T16:20:33.817Z,94.79
2023-03-06T16:23:01.150Z,95.92
2023-03-06T16:25:28.918Z,96.80
2023-03-06T16:27:59.977Z,97.17
2023-03-06T16:30:28.175Z,98.23
2023-03-06T16:32:55.509Z,97.83
2023-03-06T16:35:23.177Z,98.13
2023-03-06T16:37:50.809Z,98.30
2023-03-06T16:40:22.266Z,98.96
2023-03-06T16:42:50.157Z,99.66
2023-03-06T16:45:17.932Z,100.00
2023-03-06T16:47:45.751Z,100.00
2023-03-06T16:50:24.310Z,100.00
2023-03-06T16:52:52.391Z,100.00
2023-03-06T16:55:20.006Z,100.00
2023-03-06T16:57:47.228Z,100.00
2023-03-06T17:00:15.869Z,100.00
2023-03-06T17:02:43.486Z,100.00
2023-03-06T17:05:11.044Z,100.00
2023-03-06T17:07:38.697Z,100.00
2023-03-06T17:10:07.031Z,100.00
2023-03-06T17:12:34.533Z,100.00
2023-03-06T17:15:02.011Z,100.00
2023-03-06T17:17:29.606Z,100.00
2023-03-06T17:19:57.027Z,100.00
2023-03-06T17:22:24.316Z,100.00
2023-03-06T17:24:52.262Z,100.00
2023-03-06T17:27:21.214Z,100.00
2023-03-06T17:29:48.592Z,100.00
2023-03-06T17:32:16.222Z,100.00
2023-03-06T17:34:43.563Z,100.00
2023-03-06T17:37:10.876Z,100.00
2023-03-06T17:39:38.922Z,100.00
2023-03-06T17:42:06.618Z,100.00
2023-03-06T17:44:34.404Z,100.00
2023-03-06T17:47:02.378Z,100.00
2023-03-06T17:49:29.770Z,100.00
2023-03-06T17:51:58.055Z,100.00
2023-03-06T17:54:26.514Z,100.00
2023-03-06T17:56:53.753Z,100.00
2023-03-06T17:59:21.002Z,100.00
2023-03-06T18:01:48.564Z,100.00
2023-03-06T18:04:16.925Z,100.00
2023-03-06T18:06:44.178Z,100.00
2023-03-06T18:09:11.400Z,100.00
2023-03-06T18:11:39.061Z,100.00
2023-03-06T18:14:09.570Z,100.00
2023-03-06T18:16:36.840Z,100.00
2023-03-06T18:19:04.444Z,100.00
2023-03-06T18:21:31.743Z,100.00
2023-03-06T18:23:59.023Z,100.00
2023-03-06T18:26:27.310Z,100.00
2023-03-06T18:28:55.754Z,100.00
2023-03-06T18:31:25.890Z,100.00
2023-03-06T18:33:54.917Z,100.00
2023-03-06T18:36:25.877Z,100.00
2023-03-06T18:38:53.171Z,100.00
2023-03-06T18:41:20.944Z,100.00
2023-03-06T18:43:54.844Z,100.00
2023-03-06T18:46:22.448Z,100.00
2023-03-06T18:48:49.957Z,100.00
2023-03-06T18:51:17.829Z,100.00
2023-03-06T18:53:45.592Z,100.00
2023-03-06T18:56:17.749Z,100.00
2023-03-06T18:58:45.375Z,100.00
2023-03-06T19:01:12.668Z,100.00
2023-03-06T19:03:40.344Z,100.00
2023-03-06T19:06:09.168Z,100.00
2023-03-06T19:08:37.303Z,100.00
2023-03-06T19:11:05.815Z,100.00
2023-03-06T19:13:33.476Z,100.00
2023-03-06T19:16:01.016Z,100.00
2023-03-06T19:18:28.324Z,100.00
2023-03-06T19:20:56.647Z,100.00
2023-03-06T19:23:23.922Z,100.00
2023-03-06T19:25:58.166Z,100.00
2023-03-06T19:28:27.190Z,100.00
2023-03-06T19:30:54.476Z,100.00
2023-03-06T19:33:21.878Z,100.00
2023-03-06T19:35:49.442Z,100.00
2023-03-06T19:38:16.775Z,100.00
2023-03-06T19:40:50.206Z,100.00
2023-03-06T19:43:17.772Z,100.00
2023-03-06T19:45:45.080Z,100.00
2023-03-06T19:48:13.495Z,100.00
2023-03-06T19:50:41.055Z,100.00
2023-03-06T19:53:08.454Z,100.00
2023-03-06T19:55:35.782Z,100.00
2023-03-06T19:58:03.638Z,100.00
2023-03-06T20:00:30.942Z,100.00
2023-03-06T20:02:58.496Z,100.00
2023-03-06T20:05:25.849Z,100.00
2023-03-06T20:07:53.194Z,100.00
2023-03-06T20:10:20.733Z,100.00
2023-03-06T20:12:48.035Z,100.00
2023-03-06T20:15:15.306Z,100.00
2023-03-06T20:17:42.994Z,100.00
2023-03-06T20:20:10.844Z,100.00
2023-03-06T20:22:38.209Z,100.00
2023-03-06T20:25:05.944Z,100.00
2023-03-06T20:27:33.513Z,100.00
2023-03-06T20:30:01.150Z,100.00
2023-03-06T20:32:31.234Z,100.00
2023-03-06T20:34:58.454Z,100.00
2023-03-06T20:37:27.343Z,100.00
2023-03-06T20:39:54.890Z,100.00
2023-03-06T20:42:22.146Z,100.00
2023-03-06T20:44:49.369Z,100.00
2023-03-06T20:47:17.102Z,100.00
2023-03-06T20:49:44.360Z,100.00
2023-03-06T20:52:11.617Z,100.00
2023-03-06T20:54:39.602Z,100.00
2023-03-06T20:57:06.889Z,100.00
2023-03-06T20:59:34.176Z,100.00
2023-03-06T21:02:01.797Z,100.00
2023-03-06T21:04:29.095Z,100.00
2023-03-06T21:06:56.346Z,100.00
2023-03-06T21:09:23.879Z,100.00
2023-03-06T21:11:51.121Z,100.00
2023-03-06T21:14:18.411Z,100.00
2023-03-06T21:16:45.988Z,100.00
2023-03-06T21:19:13.266Z,100.00
2023-03-06T21:21:40.541Z,100.00
2023-03-06T21:24:08.108Z,100.00
2023-03-06T21:26:35.450Z,100.00
2023-03-06T21:29:02.695Z,100.00
2023-03-06T21:31:30.343Z,100.00
2023-03-06T21:33:58.666Z,100.00
2023-03-06T21:36:26.125Z,100.00
2023-03-06T21:38:53.756Z,100.00
2023-03-06T21:41:24.858Z,100.00
2023-03-06T21:43:56.096Z,100.00
2023-03-06T21:46:24.097Z,100.00
2023-03-06T21:48:51.506Z,100.00
2023-03-06T21:51:19.608Z,100.00
2023-03-06T21:53:47.721Z,100.00
2023-03-06T21:56:16.284Z,100.00
2023-03-06T21:58:43.809Z,100.00
2023-03-06T22:01:12.189Z,100.00
2023-03-06T22:03:39.843Z,100.00
2023-03-06T22:06:08.131Z,100.00
2023-03-06T22:08:35.360Z,100.00
2023-03-06T22:11:07.013Z,100.00
2023-03-06T22:13:34.240Z,100.00
2023-03-06T22:16:01.453Z,100.00
2023-03-06T22:18:29.001Z,100.00
2023-03-06T22:20:58.996Z,100.00
2023-03-06T22:23:26.272Z,100.00
2023-03-06T22:25:54.349Z,100.00
2023-03-06T22:28:21.656Z,100.00
2023-03-06T22:30:48.936Z,100.00
2023-03-06T22:33:16.453Z,100.00
2023-03-06T22:35:43.757Z,100.00
2023-03-06T22:38:11.058Z,100.00
2023-03-06T22:40:39.536Z,100.00
2023-03-06T22:43:06.762Z,100.00
2023-03-06T22:45:34.730Z,100.00
2023-03-06T22:48:10.365Z,100.00
2023-03-06T22:50:38.241Z,100.00
2023-03-06T22:53:05.758Z,100.00
2023-03-06T22:55:34.462Z,100.00
2023-03-06T22:58:01.700Z,100.00
2023-03-06T23:00:29.389Z,100.00
2023-03-06T23:02:56.530Z,100.00
2023-03-06T23:05:24.536Z,100.00
2023-03-06T23:07:52.138Z,100.00
2023-03-06T23:10:19.413Z,100.00
2023-03-06T23:13:05.679Z,100.00
2023-03-06T23:15:51.948Z,100.00
2023-03-06T23:18:38.026Z,100.00
2023-03-06T23:21:24.292Z,100.00
2023-03-06T23:24:09.786Z,100.00
2023-03-06T23:26:37.415Z,100.00
2023-03-06T23:29:04.636Z,100.00
2023-03-06T23:31:32.244Z,100.00
2023-03-06T23:34:00.805Z,100.00
2023-03-06T23:36:28.647Z,100.00
2023-03-06T23:38:55.893Z,100.00
2023-03-06T23:41:23.771Z,100.00
2023-03-06T23:43:51.997Z,100.00
2023-03-06T23:46:20.817Z,100.00
2023-03-06T23:48:48.407Z,100.00
2023-03-06T23:51:16.903Z,100.00
2023-03-06T23:53:44.843Z,100.00
2023-03-06T23:56:12.439Z,100.00
2023-03-06T23:58:39.734Z,100.00
